sensor_id;sensor_type;location;lat;lon;timestamp;P1;durP1;ratioP1;P2;durP2;ratioP2
68214;SDS011;55036;52.138;5.236;2022-10-16T00:01:07;7.82;;;2.63;;
68214;SDS011;55036;52.138;5.236;2022-10-16T00:03:37;8.00;;;2.17;;
68214;SDS011;55036;52.138;5.236;2022-10-16T00:06:05;6.85;;;2.10;;
68214;SDS011;55036;52.138;5.236;2022-10-16T00:08:32;7.45;;;2.00;;
68214;SDS011;55036;52.138;5.236;2022-10-16T00:11:04;9.40;;;1.98;;
68214;SDS011;55036;52.138;5.236;2022-10-16T00:13:33;5.35;;;2.28;;
68214;SDS011;55036;52.138;5.236;2022-10-16T00:16:00;7.05;;;2.00;;
68214;SDS011;55036;52.138;5.236;2022-10-16T00:18:27;7.10;;;1.80;;
68214;SDS011;55036;52.138;5.236;2022-10-16T00:20:55;6.65;;;2.10;;
68214;SDS011;55036;52.138;5.236;2022-10-16T00:23:22;7.43;;;2.17;;
68214;SDS011;55036;52.138;5.236;2022-10-16T00:25:55;5.20;;;1.77;;
68214;SDS011;55036;52.138;5.236;2022-10-16T00:28:26;7.40;;;1.98;;
68214;SDS011;55036;52.138;5.236;2022-10-16T00:30:53;4.65;;;2.13;;
68214;SDS011;55036;52.138;5.236;2022-10-16T00:33:20;4.18;;;1.98;;
68214;SDS011;55036;52.138;5.236;2022-10-16T00:35:46;7.40;;;2.20;;
68214;SDS011;55036;52.138;5.236;2022-10-16T00:38:13;4.85;;;1.70;;
68214;SDS011;55036;52.138;5.236;2022-10-16T00:40:40;5.22;;;2.10;;
68214;SDS011;55036;52.138;5.236;2022-10-16T00:43:54;8.20;;;1.85;;
68214;SDS011;55036;52.138;5.236;2022-10-16T00:48:43;3.85;;;1.77;;
68214;SDS011;55036;52.138;5.236;2022-10-16T00:51:36;5.43;;;2.08;;
68214;SDS011;55036;52.138;5.236;2022-10-16T00:54:09;3.47;;;2.40;;
68214;SDS011;55036;52.138;5.236;2022-10-16T00:59:07;4.13;;;2.15;;
68214;SDS011;55036;52.138;5.236;2022-10-16T01:01:45;4.03;;;2.35;;
68214;SDS011;55036;52.138;5.236;2022-10-16T01:04:12;4.22;;;2.05;;
68214;SDS011;55036;52.138;5.236;2022-10-16T01:06:42;7.18;;;2.63;;
68214;SDS011;55036;52.138;5.236;2022-10-16T01:09:44;7.53;;;2.08;;
68214;SDS011;55036;52.138;5.236;2022-10-16T01:12:23;6.78;;;2.20;;
68214;SDS011;55036;52.138;5.236;2022-10-16T01:17:31;4.70;;;2.50;;
68214;SDS011;55036;52.138;5.236;2022-10-16T01:20:15;4.30;;;1.80;;
68214;SDS011;55036;52.138;5.236;2022-10-16T01:28:34;4.40;;;2.17;;
68214;SDS011;55036;52.138;5.236;2022-10-16T01:31:05;5.07;;;2.05;;
68214;SDS011;55036;52.138;5.236;2022-10-16T01:37:43;6.25;;;2.08;;
68214;SDS011;55036;52.138;5.236;2022-10-16T01:40:07;6.30;;;1.90;;
68214;SDS011;55036;52.138;5.236;2022-10-16T01:42:39;6.65;;;2.72;;
68214;SDS011;55036;52.138;5.236;2022-10-16T01:45:14;7.28;;;2.05;;
68214;SDS011;55036;52.138;5.236;2022-10-16T01:47:44;4.50;;;2.10;;
68214;SDS011;55036;52.138;5.236;2022-10-16T01:50:12;6.00;;;2.40;;
68214;SDS011;55036;52.138;5.236;2022-10-16T01:52:43;5.57;;;2.40;;
68214;SDS011;55036;52.138;5.236;2022-10-16T01:55:27;3.22;;;1.88;;
68214;SDS011;55036;52.138;5.236;2022-10-16T01:57:58;7.13;;;2.20;;
68214;SDS011;55036;52.138;5.236;2022-10-16T02:00:27;5.45;;;2.00;;
68214;SDS011;55036;52.138;5.236;2022-10-16T02:02:56;6.13;;;2.08;;
68214;SDS011;55036;52.138;5.236;2022-10-16T02:05:31;8.52;;;2.40;;
68214;SDS011;55036;52.138;5.236;2022-10-16T02:08:03;7.20;;;2.10;;
68214;SDS011;55036;52.138;5.236;2022-10-16T02:10:31;4.40;;;2.50;;
68214;SDS011;55036;52.138;5.236;2022-10-16T02:13:03;3.72;;;2.40;;
68214;SDS011;55036;52.138;5.236;2022-10-16T02:15:36;5.15;;;2.05;;
68214;SDS011;55036;52.138;5.236;2022-10-16T02:18:04;3.47;;;2.38;;
68214;SDS011;55036;52.138;5.236;2022-10-16T02:21:07;4.45;;;2.50;;
68214;SDS011;55036;52.138;5.236;2022-10-16T02:23:48;5.95;;;2.35;;
68214;SDS011;55036;52.138;5.236;2022-10-16T02:26:30;5.75;;;2.50;;
68214;SDS011;55036;52.138;5.236;2022-10-16T02:29:05;6.82;;;2.70;;
68214;SDS011;55036;52.138;5.236;2022-10-16T02:31:36;4.93;;;2.38;;
68214;SDS011;55036;52.138;5.236;2022-10-16T02:34:08;4.20;;;2.53;;
68214;SDS011;55036;52.138;5.236;2022-10-16T02:36:37;4.45;;;2.25;;
68214;SDS011;55036;52.138;5.236;2022-10-16T02:39:06;4.68;;;2.30;;
68214;SDS011;55036;52.138;5.236;2022-10-16T02:41:35;5.43;;;2.58;;
68214;SDS011;55036;52.138;5.236;2022-10-16T02:44:02;7.03;;;2.88;;
68214;SDS011;55036;52.138;5.236;2022-10-16T02:46:28;6.63;;;2.70;;
68214;SDS011;55036;52.138;5.236;2022-10-16T02:48:55;4.53;;;2.70;;
68214;SDS011;55036;52.138;5.236;2022-10-16T02:51:21;4.50;;;3.10;;
68214;SDS011;55036;52.138;5.236;2022-10-16T02:53:48;6.68;;;2.60;;
68214;SDS011;55036;52.138;5.236;2022-10-16T02:56:15;3.97;;;2.20;;
68214;SDS011;55036;52.138;5.236;2022-10-16T02:58:41;5.10;;;2.47;;
68214;SDS011;55036;52.138;5.236;2022-10-16T03:01:08;4.60;;;2.70;;
68214;SDS011;55036;52.138;5.236;2022-10-16T03:03:35;4.65;;;2.22;;
68214;SDS011;55036;52.138;5.236;2022-10-16T03:06:01;3.58;;;2.20;;
68214;SDS011;55036;52.138;5.236;2022-10-16T03:08:29;4.32;;;2.38;;
68214;SDS011;55036;52.138;5.236;2022-10-16T03:10:55;5.20;;;2.30;;
68214;SDS011;55036;52.138;5.236;2022-10-16T03:13:22;4.95;;;2.28;;
68214;SDS011;55036;52.138;5.236;2022-10-16T03:15:48;3.85;;;2.15;;
68214;SDS011;55036;52.138;5.236;2022-10-16T03:18:15;3.42;;;1.85;;
68214;SDS011;55036;52.138;5.236;2022-10-16T03:20:42;4.72;;;1.90;;
68214;SDS011;55036;52.138;5.236;2022-10-16T03:23:09;4.82;;;2.20;;
68214;SDS011;55036;52.138;5.236;2022-10-16T03:25:36;4.28;;;2.25;;
68214;SDS011;55036;52.138;5.236;2022-10-16T03:28:03;4.25;;;2.10;;
68214;SDS011;55036;52.138;5.236;2022-10-16T03:30:30;3.40;;;1.90;;
68214;SDS011;55036;52.138;5.236;2022-10-16T03:32:56;3.55;;;1.70;;
68214;SDS011;55036;52.138;5.236;2022-10-16T03:35:23;4.15;;;1.90;;
68214;SDS011;55036;52.138;5.236;2022-10-16T03:37:50;5.20;;;1.90;;
68214;SDS011;55036;52.138;5.236;2022-10-16T03:40:17;3.75;;;1.90;;
68214;SDS011;55036;52.138;5.236;2022-10-16T03:42:44;3.53;;;2.03;;
68214;SDS011;55036;52.138;5.236;2022-10-16T03:45:11;4.25;;;1.80;;
68214;SDS011;55036;52.138;5.236;2022-10-16T03:47:37;4.85;;;2.25;;
68214;SDS011;55036;52.138;5.236;2022-10-16T03:50:04;3.58;;;1.83;;
68214;SDS011;55036;52.138;5.236;2022-10-16T03:52:31;4.32;;;2.05;;
68214;SDS011;55036;52.138;5.236;2022-10-16T03:54:58;6.38;;;1.73;;
68214;SDS011;55036;52.138;5.236;2022-10-16T03:57:25;3.72;;;1.85;;
68214;SDS011;55036;52.138;5.236;2022-10-16T03:59:52;4.05;;;1.80;;
68214;SDS011;55036;52.138;5.236;2022-10-16T04:02:19;3.78;;;1.70;;
68214;SDS011;55036;52.138;5.236;2022-10-16T04:04:45;4.32;;;1.92;;
68214;SDS011;55036;52.138;5.236;2022-10-16T04:07:12;2.95;;;2.00;;
68214;SDS011;55036;52.138;5.236;2022-10-16T04:09:39;5.93;;;1.75;;
68214;SDS011;55036;52.138;5.236;2022-10-16T04:12:05;3.65;;;1.42;;
68214;SDS011;55036;52.138;5.236;2022-10-16T04:14:32;2.55;;;1.83;;
68214;SDS011;55036;52.138;5.236;2022-10-16T04:16:59;3.78;;;1.90;;
68214;SDS011;55036;52.138;5.236;2022-10-16T04:19:25;7.60;;;1.52;;
68214;SDS011;55036;52.138;5.236;2022-10-16T04:21:52;4.82;;;1.50;;
68214;SDS011;55036;52.138;5.236;2022-10-16T04:24:19;5.15;;;1.67;;
68214;SDS011;55036;52.138;5.236;2022-10-16T04:26:45;3.38;;;1.58;;
68214;SDS011;55036;52.138;5.236;2022-10-16T04:29:12;2.75;;;1.60;;
68214;SDS011;55036;52.138;5.236;2022-10-16T04:31:38;3.30;;;1.50;;
68214;SDS011;55036;52.138;5.236;2022-10-16T04:34:05;5.13;;;1.67;;
68214;SDS011;55036;52.138;5.236;2022-10-16T04:36:31;4.47;;;1.48;;
68214;SDS011;55036;52.138;5.236;2022-10-16T04:38:58;4.55;;;1.52;;
68214;SDS011;55036;52.138;5.236;2022-10-16T04:41:25;5.65;;;1.52;;
68214;SDS011;55036;52.138;5.236;2022-10-16T04:43:52;2.88;;;1.73;;
68214;SDS011;55036;52.138;5.236;2022-10-16T04:46:18;4.15;;;1.63;;
68214;SDS011;55036;52.138;5.236;2022-10-16T04:48:45;4.40;;;1.55;;
68214;SDS011;55036;52.138;5.236;2022-10-16T04:51:12;4.47;;;1.80;;
68214;SDS011;55036;52.138;5.236;2022-10-16T04:53:39;2.65;;;1.85;;
68214;SDS011;55036;52.138;5.236;2022-10-16T04:56:06;4.65;;;1.80;;
68214;SDS011;55036;52.138;5.236;2022-10-16T04:58:32;3.65;;;1.77;;
68214;SDS011;55036;52.138;5.236;2022-10-16T05:00:59;5.10;;;1.65;;
68214;SDS011;55036;52.138;5.236;2022-10-16T05:03:25;4.35;;;1.27;;
68214;SDS011;55036;52.138;5.236;2022-10-16T05:05:52;5.85;;;1.70;;
68214;SDS011;55036;52.138;5.236;2022-10-16T05:08:19;3.05;;;1.90;;
68214;SDS011;55036;52.138;5.236;2022-10-16T05:10:45;6.47;;;1.75;;
68214;SDS011;55036;52.138;5.236;2022-10-16T05:13:12;2.97;;;1.40;;
68214;SDS011;55036;52.138;5.236;2022-10-16T05:15:39;1.98;;;1.50;;
68214;SDS011;55036;52.138;5.236;2022-10-16T05:18:06;4.00;;;1.77;;
68214;SDS011;55036;52.138;5.236;2022-10-16T05:20:32;5.53;;;1.60;;
68214;SDS011;55036;52.138;5.236;2022-10-16T05:22:59;3.60;;;1.80;;
68214;SDS011;55036;52.138;5.236;2022-10-16T05:25:25;4.55;;;2.00;;
68214;SDS011;55036;52.138;5.236;2022-10-16T05:27:52;5.55;;;1.95;;
68214;SDS011;55036;52.138;5.236;2022-10-16T05:30:19;4.18;;;1.50;;
68214;SDS011;55036;52.138;5.236;2022-10-16T05:32:47;3.03;;;1.45;;
68214;SDS011;55036;52.138;5.236;2022-10-16T05:35:15;3.15;;;1.67;;
68214;SDS011;55036;52.138;5.236;2022-10-16T05:37:42;3.00;;;1.70;;
68214;SDS011;55036;52.138;5.236;2022-10-16T05:40:09;3.67;;;1.80;;
68214;SDS011;55036;52.138;5.236;2022-10-16T05:42:36;6.90;;;2.10;;
68214;SDS011;55036;52.138;5.236;2022-10-16T05:45:04;3.50;;;1.77;;
68214;SDS011;55036;52.138;5.236;2022-10-16T05:47:32;2.17;;;1.67;;
68214;SDS011;55036;52.138;5.236;2022-10-16T05:49:58;3.90;;;2.25;;
68214;SDS011;55036;52.138;5.236;2022-10-16T05:52:26;5.80;;;1.98;;
68214;SDS011;55036;52.138;5.236;2022-10-16T05:54:53;4.45;;;2.00;;
68214;SDS011;55036;52.138;5.236;2022-10-16T05:57:19;4.22;;;2.30;;
68214;SDS011;55036;52.138;5.236;2022-10-16T05:59:46;3.17;;;1.85;;
68214;SDS011;55036;52.138;5.236;2022-10-16T06:02:13;4.32;;;2.08;;
68214;SDS011;55036;52.138;5.236;2022-10-16T06:04:40;4.40;;;2.10;;
68214;SDS011;55036;52.138;5.236;2022-10-16T06:07:07;6.95;;;2.10;;
68214;SDS011;55036;52.138;5.236;2022-10-16T06:09:34;5.40;;;2.22;;
68214;SDS011;55036;52.138;5.236;2022-10-16T06:12:00;6.40;;;2.63;;
68214;SDS011;55036;52.138;5.236;2022-10-16T06:14:27;4.22;;;1.70;;
68214;SDS011;55036;52.138;5.236;2022-10-16T06:16:54;5.72;;;2.10;;
68214;SDS011;55036;52.138;5.236;2022-10-16T06:19:20;6.15;;;2.17;;
68214;SDS011;55036;52.138;5.236;2022-10-16T06:21:47;6.97;;;2.25;;
68214;SDS011;55036;52.138;5.236;2022-10-16T06:24:13;6.13;;;2.17;;
68214;SDS011;55036;52.138;5.236;2022-10-16T06:26:40;3.80;;;2.17;;
68214;SDS011;55036;52.138;5.236;2022-10-16T06:29:08;6.13;;;2.70;;
68214;SDS011;55036;52.138;5.236;2022-10-16T06:31:34;5.10;;;2.03;;
68214;SDS011;55036;52.138;5.236;2022-10-16T06:34:01;6.03;;;2.70;;
68214;SDS011;55036;52.138;5.236;2022-10-16T06:36:29;5.70;;;2.40;;
68214;SDS011;55036;52.138;5.236;2022-10-16T06:38:56;4.72;;;2.63;;
68214;SDS011;55036;52.138;5.236;2022-10-16T06:41:22;5.18;;;2.53;;
68214;SDS011;55036;52.138;5.236;2022-10-16T06:43:49;5.72;;;2.47;;
68214;SDS011;55036;52.138;5.236;2022-10-16T06:46:17;4.45;;;2.65;;
68214;SDS011;55036;52.138;5.236;2022-10-16T06:48:46;5.65;;;2.22;;
68214;SDS011;55036;52.138;5.236;2022-10-16T06:51:16;5.53;;;2.65;;
68214;SDS011;55036;52.138;5.236;2022-10-16T06:53:45;7.68;;;3.08;;
68214;SDS011;55036;52.138;5.236;2022-10-16T06:56:28;5.28;;;2.60;;
68214;SDS011;55036;52.138;5.236;2022-10-16T06:58:56;5.20;;;2.15;;
68214;SDS011;55036;52.138;5.236;2022-10-16T07:01:24;4.63;;;2.00;;
68214;SDS011;55036;52.138;5.236;2022-10-16T07:03:51;5.35;;;2.50;;
68214;SDS011;55036;52.138;5.236;2022-10-16T07:06:19;3.53;;;2.10;;
68214;SDS011;55036;52.138;5.236;2022-10-16T07:08:47;5.55;;;1.75;;
68214;SDS011;55036;52.138;5.236;2022-10-16T07:11:16;4.70;;;1.70;;
68214;SDS011;55036;52.138;5.236;2022-10-16T07:13:44;4.57;;;1.70;;
68214;SDS011;55036;52.138;5.236;2022-10-16T07:16:20;6.63;;;1.90;;
68214;SDS011;55036;52.138;5.236;2022-10-16T07:18:49;4.10;;;1.95;;
68214;SDS011;55036;52.138;5.236;2022-10-16T07:21:21;3.85;;;1.77;;
68214;SDS011;55036;52.138;5.236;2022-10-16T07:23:55;5.97;;;2.08;;
68214;SDS011;55036;52.138;5.236;2022-10-16T07:26:23;4.57;;;1.80;;
68214;SDS011;55036;52.138;5.236;2022-10-16T07:28:51;4.20;;;1.92;;
68214;SDS011;55036;52.138;5.236;2022-10-16T07:31:19;4.03;;;1.42;;
68214;SDS011;55036;52.138;5.236;2022-10-16T07:33:46;6.88;;;1.70;;
68214;SDS011;55036;52.138;5.236;2022-10-16T07:36:15;4.50;;;1.55;;
68214;SDS011;55036;52.138;5.236;2022-10-16T07:38:44;3.78;;;1.40;;
68214;SDS011;55036;52.138;5.236;2022-10-16T07:41:12;3.67;;;1.48;;
68214;SDS011;55036;52.138;5.236;2022-10-16T07:43:40;5.43;;;1.45;;
68214;SDS011;55036;52.138;5.236;2022-10-16T07:46:11;5.43;;;1.70;;
68214;SDS011;55036;52.138;5.236;2022-10-16T07:48:38;7.28;;;1.50;;
68214;SDS011;55036;52.138;5.236;2022-10-16T07:51:05;4.90;;;1.33;;
68214;SDS011;55036;52.138;5.236;2022-10-16T07:53:33;5.40;;;1.38;;
68214;SDS011;55036;52.138;5.236;2022-10-16T07:56:03;4.78;;;1.25;;
68214;SDS011;55036;52.138;5.236;2022-10-16T07:58:32;4.80;;;1.55;;
68214;SDS011;55036;52.138;5.236;2022-10-16T08:01:02;4.82;;;1.65;;
68214;SDS011;55036;52.138;5.236;2022-10-16T08:03:30;5.75;;;1.77;;
68214;SDS011;55036;52.138;5.236;2022-10-16T08:05:57;3.45;;;1.65;;
68214;SDS011;55036;52.138;5.236;2022-10-16T08:08:24;5.45;;;2.08;;
68214;SDS011;55036;52.138;5.236;2022-10-16T08:10:50;3.58;;;1.80;;
68214;SDS011;55036;52.138;5.236;2022-10-16T08:13:17;3.20;;;1.70;;
68214;SDS011;55036;52.138;5.236;2022-10-16T08:15:44;3.45;;;1.67;;
68214;SDS011;55036;52.138;5.236;2022-10-16T08:18:12;6.35;;;1.85;;
68214;SDS011;55036;52.138;5.236;2022-10-16T08:20:40;5.18;;;1.75;;
68214;SDS011;55036;52.138;5.236;2022-10-16T08:23:09;3.95;;;1.92;;
68214;SDS011;55036;52.138;5.236;2022-10-16T08:25:37;6.05;;;1.58;;
68214;SDS011;55036;52.138;5.236;2022-10-16T08:28:04;6.90;;;2.33;;
68214;SDS011;55036;52.138;5.236;2022-10-16T08:30:32;4.35;;;1.50;;
68214;SDS011;55036;52.138;5.236;2022-10-16T08:32:59;5.25;;;1.48;;
68214;SDS011;55036;52.138;5.236;2022-10-16T08:35:26;3.88;;;1.60;;
68214;SDS011;55036;52.138;5.236;2022-10-16T08:37:53;8.00;;;1.77;;
68214;SDS011;55036;52.138;5.236;2022-10-16T08:40:27;7.82;;;1.83;;
68214;SDS011;55036;52.138;5.236;2022-10-16T08:48:37;6.93;;;2.10;;
68214;SDS011;55036;52.138;5.236;2022-10-16T08:51:11;6.13;;;2.03;;
68214;SDS011;55036;52.138;5.236;2022-10-16T08:54:08;8.88;;;1.40;;
68214;SDS011;55036;52.138;5.236;2022-10-16T08:56:40;3.83;;;1.60;;
68214;SDS011;55036;52.138;5.236;2022-10-16T08:59:09;4.15;;;1.30;;
68214;SDS011;55036;52.138;5.236;2022-10-16T09:01:41;4.70;;;1.83;;
68214;SDS011;55036;52.138;5.236;2022-10-16T09:04:18;4.75;;;1.40;;
68214;SDS011;55036;52.138;5.236;2022-10-16T09:12:48;7.07;;;1.90;;
68214;SDS011;55036;52.138;5.236;2022-10-16T09:15:28;9.20;;;2.03;;
68214;SDS011;55036;52.138;5.236;2022-10-16T09:18:04;6.55;;;1.13;;
68214;SDS011;55036;52.138;5.236;2022-10-16T09:20:49;10.88;;;1.80;;
68214;SDS011;55036;52.138;5.236;2022-10-16T09:23:28;7.70;;;1.77;;
68214;SDS011;55036;52.138;5.236;2022-10-16T09:25:57;10.15;;;2.28;;
68214;SDS011;55036;52.138;5.236;2022-10-16T09:28:24;4.38;;;1.35;;
68214;SDS011;55036;52.138;5.236;2022-10-16T09:30:51;5.75;;;2.25;;
68214;SDS011;55036;52.138;5.236;2022-10-16T09:33:19;6.90;;;1.70;;
68214;SDS011;55036;52.138;5.236;2022-10-16T09:35:50;6.35;;;1.73;;
68214;SDS011;55036;52.138;5.236;2022-10-16T09:38:26;9.55;;;2.55;;
68214;SDS011;55036;52.138;5.236;2022-10-16T09:40:58;9.38;;;2.17;;
68214;SDS011;55036;52.138;5.236;2022-10-16T09:43:40;9.55;;;1.83;;
68214;SDS011;55036;52.138;5.236;2022-10-16T09:46:22;8.82;;;1.70;;
68214;SDS011;55036;52.138;5.236;2022-10-16T09:48:55;5.68;;;2.00;;
68214;SDS011;55036;52.138;5.236;2022-10-16T09:51:28;10.18;;;1.67;;
68214;SDS011;55036;52.138;5.236;2022-10-16T09:54:00;9.05;;;2.25;;
68214;SDS011;55036;52.138;5.236;2022-10-16T09:56:47;14.45;;;2.35;;
68214;SDS011;55036;52.138;5.236;2022-10-16T09:59:18;9.40;;;1.85;;
68214;SDS011;55036;52.138;5.236;2022-10-16T10:01:48;8.13;;;2.05;;
68214;SDS011;55036;52.138;5.236;2022-10-16T10:04:22;10.52;;;2.08;;
68214;SDS011;55036;52.138;5.236;2022-10-16T10:06:53;9.35;;;2.15;;
68214;SDS011;55036;52.138;5.236;2022-10-16T10:09:22;10.65;;;2.20;;
68214;SDS011;55036;52.138;5.236;2022-10-16T10:11:56;8.23;;;1.80;;
68214;SDS011;55036;52.138;5.236;2022-10-16T10:14:35;9.43;;;2.22;;
68214;SDS011;55036;52.138;5.236;2022-10-16T10:19:48;16.55;;;2.20;;
68214;SDS011;55036;52.138;5.236;2022-10-16T10:22:24;10.97;;;1.97;;
68214;SDS011;55036;52.138;5.236;2022-10-16T10:25:07;9.25;;;1.98;;
68214;SDS011;55036;52.138;5.236;2022-10-16T10:44:14;5.07;;;1.83;;
68214;SDS011;55036;52.138;5.236;2022-10-16T10:46:50;8.32;;;2.03;;
68214;SDS011;55036;52.138;5.236;2022-10-16T10:52:13;11.52;;;2.40;;
68214;SDS011;55036;52.138;5.236;2022-10-16T10:54:48;8.07;;;2.40;;
68214;SDS011;55036;52.138;5.236;2022-10-16T10:57:25;13.23;;;2.40;;
68214;SDS011;55036;52.138;5.236;2022-10-16T11:02:47;11.82;;;2.72;;
68214;SDS011;55036;52.138;5.236;2022-10-16T11:05:23;7.32;;;1.90;;
68214;SDS011;55036;52.138;5.236;2022-10-16T11:08:00;11.68;;;2.75;;
68214;SDS011;55036;52.138;5.236;2022-10-16T11:10:50;9.43;;;2.25;;
68214;SDS011;55036;52.138;5.236;2022-10-16T11:13:26;10.82;;;2.22;;
68214;SDS011;55036;52.138;5.236;2022-10-16T11:15:59;7.68;;;2.10;;
68214;SDS011;55036;52.138;5.236;2022-10-16T11:18:44;10.48;;;2.38;;
68214;SDS011;55036;52.138;5.236;2022-10-16T11:21:24;4.75;;;1.50;;
68214;SDS011;55036;52.138;5.236;2022-10-16T11:26:29;9.27;;;2.10;;
68214;SDS011;55036;52.138;5.236;2022-10-16T11:29:00;8.40;;;1.90;;
68214;SDS011;55036;52.138;5.236;2022-10-16T11:31:41;10.50;;;2.30;;
68214;SDS011;55036;52.138;5.236;2022-10-16T11:34:15;10.13;;;1.75;;
68214;SDS011;55036;52.138;5.236;2022-10-16T11:36:49;6.75;;;1.85;;
68214;SDS011;55036;52.138;5.236;2022-10-16T11:39:26;6.57;;;1.92;;
68214;SDS011;55036;52.138;5.236;2022-10-16T11:47:34;5.32;;;1.30;;
68214;SDS011;55036;52.138;5.236;2022-10-16T11:53:09;8.73;;;2.00;;
68214;SDS011;55036;52.138;5.236;2022-10-16T11:55:46;10.48;;;1.90;;
68214;SDS011;55036;52.138;5.236;2022-10-16T12:00:53;7.75;;;1.40;;
68214;SDS011;55036;52.138;5.236;2022-10-16T12:03:56;7.43;;;1.70;;
68214;SDS011;55036;52.138;5.236;2022-10-16T12:09:32;12.90;;;2.13;;
68214;SDS011;55036;52.138;5.236;2022-10-16T12:12:03;19.33;;;2.97;;
68214;SDS011;55036;52.138;5.236;2022-10-16T12:22:52;11.38;;;1.92;;
68214;SDS011;55036;52.138;5.236;2022-10-16T12:28:06;9.95;;;2.92;;
68214;SDS011;55036;52.138;5.236;2022-10-16T12:30:51;7.93;;;1.85;;
68214;SDS011;55036;52.138;5.236;2022-10-16T12:33:25;11.95;;;2.20;;
68214;SDS011;55036;52.138;5.236;2022-10-16T12:35:54;10.70;;;2.38;;
68214;SDS011;55036;52.138;5.236;2022-10-16T12:38:25;11.60;;;2.30;;
68214;SDS011;55036;52.138;5.236;2022-10-16T12:41:04;7.20;;;1.58;;
68214;SDS011;55036;52.138;5.236;2022-10-16T12:43:35;6.50;;;1.83;;
68214;SDS011;55036;52.138;5.236;2022-10-16T12:48:35;5.88;;;1.52;;
68214;SDS011;55036;52.138;5.236;2022-10-16T13:04:51;11.90;;;1.92;;
68214;SDS011;55036;52.138;5.236;2022-10-16T13:10:21;8.10;;;1.85;;
68214;SDS011;55036;52.138;5.236;2022-10-16T13:13:04;10.32;;;1.85;;
68214;SDS011;55036;52.138;5.236;2022-10-16T13:15:58;8.02;;;2.13;;
68214;SDS011;55036;52.138;5.236;2022-10-16T13:21:49;9.80;;;2.13;;
68214;SDS011;55036;52.138;5.236;2022-10-16T13:24:49;7.75;;;1.65;;
68214;SDS011;55036;52.138;5.236;2022-10-16T13:30:30;7.13;;;1.63;;
68214;SDS011;55036;52.138;5.236;2022-10-16T13:33:01;6.53;;;1.52;;
68214;SDS011;55036;52.138;5.236;2022-10-16T13:35:31;11.05;;;1.75;;
68214;SDS011;55036;52.138;5.236;2022-10-16T13:38:03;10.82;;;1.67;;
68214;SDS011;55036;52.138;5.236;2022-10-16T13:40:54;12.43;;;2.13;;
68214;SDS011;55036;52.138;5.236;2022-10-16T13:46:16;5.63;;;1.23;;
68214;SDS011;55036;52.138;5.236;2022-10-16T13:48:44;9.40;;;1.55;;
68214;SDS011;55036;52.138;5.236;2022-10-16T13:51:21;7.38;;;1.40;;
68214;SDS011;55036;52.138;5.236;2022-10-16T13:53:54;10.20;;;2.42;;
68214;SDS011;55036;52.138;5.236;2022-10-16T13:56:24;9.23;;;1.73;;
68214;SDS011;55036;52.138;5.236;2022-10-16T13:59:06;10.38;;;2.20;;
68214;SDS011;55036;52.138;5.236;2022-10-16T14:01:48;8.23;;;2.10;;
68214;SDS011;55036;52.138;5.236;2022-10-16T14:04:17;8.57;;;1.48;;
68214;SDS011;55036;52.138;5.236;2022-10-16T14:06:44;11.82;;;2.65;;
68214;SDS011;55036;52.138;5.236;2022-10-16T14:09:20;8.63;;;2.08;;
68214;SDS011;55036;52.138;5.236;2022-10-16T14:11:53;11.82;;;2.28;;
68214;SDS011;55036;52.138;5.236;2022-10-16T14:14:35;8.23;;;1.90;;
68214;SDS011;55036;52.138;5.236;2022-10-16T14:17:18;8.85;;;2.00;;
68214;SDS011;55036;52.138;5.236;2022-10-16T14:19:49;5.38;;;1.38;;
68214;SDS011;55036;52.138;5.236;2022-10-16T14:25:16;7.03;;;1.67;;
68214;SDS011;55036;52.138;5.236;2022-10-16T14:27:56;8.98;;;1.88;;
68214;SDS011;55036;52.138;5.236;2022-10-16T14:30:33;9.05;;;2.10;;
68214;SDS011;55036;52.138;5.236;2022-10-16T14:33:06;7.32;;;2.03;;
68214;SDS011;55036;52.138;5.236;2022-10-16T14:38:39;12.70;;;2.60;;
68214;SDS011;55036;52.138;5.236;2022-10-16T14:41:15;15.95;;;2.20;;
68214;SDS011;55036;52.138;5.236;2022-10-16T14:43:49;9.32;;;1.60;;
68214;SDS011;55036;52.138;5.236;2022-10-16T14:48:47;8.52;;;1.50;;
68214;SDS011;55036;52.138;5.236;2022-10-16T14:51:16;12.43;;;2.22;;
68214;SDS011;55036;52.138;5.236;2022-10-16T14:53:44;12.27;;;2.28;;
68214;SDS011;55036;52.138;5.236;2022-10-16T14:56:18;7.22;;;1.60;;
68214;SDS011;55036;52.138;5.236;2022-10-16T14:58:47;9.85;;;2.15;;
68214;SDS011;55036;52.138;5.236;2022-10-16T15:01:15;8.32;;;1.65;;
68214;SDS011;55036;52.138;5.236;2022-10-16T15:03:42;11.15;;;1.67;;
68214;SDS011;55036;52.138;5.236;2022-10-16T15:06:10;12.63;;;1.58;;
68214;SDS011;55036;52.138;5.236;2022-10-16T15:08:38;8.38;;;1.75;;
68214;SDS011;55036;52.138;5.236;2022-10-16T15:11:05;8.00;;;2.50;;
68214;SDS011;55036;52.138;5.236;2022-10-16T15:13:40;7.82;;;1.80;;
68214;SDS011;55036;52.138;5.236;2022-10-16T15:16:09;10.55;;;1.85;;
68214;SDS011;55036;52.138;5.236;2022-10-16T15:18:38;12.52;;;2.05;;
68214;SDS011;55036;52.138;5.236;2022-10-16T15:21:05;10.57;;;2.00;;
68214;SDS011;55036;52.138;5.236;2022-10-16T15:23:32;6.95;;;1.98;;
68214;SDS011;55036;52.138;5.236;2022-10-16T15:25:59;10.23;;;1.85;;
68214;SDS011;55036;52.138;5.236;2022-10-16T15:28:26;12.23;;;2.33;;
68214;SDS011;55036;52.138;5.236;2022-10-16T15:30:53;8.15;;;1.80;;
68214;SDS011;55036;52.138;5.236;2022-10-16T15:33:23;10.23;;;2.20;;
68214;SDS011;55036;52.138;5.236;2022-10-16T15:35:53;10.60;;;2.40;;
68214;SDS011;55036;52.138;5.236;2022-10-16T15:38:21;10.77;;;2.60;;
68214;SDS011;55036;52.138;5.236;2022-10-16T15:40:49;15.40;;;6.47;;
68214;SDS011;55036;52.138;5.236;2022-10-16T15:43:16;10.85;;;4.80;;
68214;SDS011;55036;52.138;5.236;2022-10-16T15:45:46;11.00;;;3.53;;
68214;SDS011;55036;52.138;5.236;2022-10-16T15:48:27;10.00;;;4.15;;
68214;SDS011;55036;52.138;5.236;2022-10-16T15:50:54;13.35;;;5.25;;
68214;SDS011;55036;52.138;5.236;2022-10-16T15:53:21;10.90;;;5.03;;
68214;SDS011;55036;52.138;5.236;2022-10-16T15:55:48;16.48;;;4.65;;
68214;SDS011;55036;52.138;5.236;2022-10-16T15:58:15;10.18;;;3.80;;
68214;SDS011;55036;52.138;5.236;2022-10-16T16:00:41;10.85;;;3.58;;
68214;SDS011;55036;52.138;5.236;2022-10-16T16:03:08;7.60;;;2.63;;
68214;SDS011;55036;52.138;5.236;2022-10-16T16:05:37;15.20;;;2.67;;
68214;SDS011;55036;52.138;5.236;2022-10-16T16:08:11;8.85;;;3.50;;
68214;SDS011;55036;52.138;5.236;2022-10-16T16:10:38;15.45;;;5.88;;
68214;SDS011;55036;52.138;5.236;2022-10-16T16:13:04;25.30;;;15.82;;
68214;SDS011;55036;52.138;5.236;2022-10-16T16:15:31;27.98;;;17.70;;
68214;SDS011;55036;52.138;5.236;2022-10-16T16:17:58;21.98;;;13.27;;
68214;SDS011;55036;52.138;5.236;2022-10-16T16:20:24;16.65;;;10.25;;
68214;SDS011;55036;52.138;5.236;2022-10-16T16:22:51;18.50;;;9.20;;
68214;SDS011;55036;52.138;5.236;2022-10-16T16:25:17;16.60;;;12.07;;
68214;SDS011;55036;52.138;5.236;2022-10-16T16:27:44;20.80;;;8.88;;
68214;SDS011;55036;52.138;5.236;2022-10-16T16:30:11;10.52;;;5.30;;
68214;SDS011;55036;52.138;5.236;2022-10-16T16:32:44;11.15;;;3.85;;
68214;SDS011;55036;52.138;5.236;2022-10-16T16:35:11;11.90;;;3.53;;
68214;SDS011;55036;52.138;5.236;2022-10-16T16:37:38;14.00;;;3.80;;
68214;SDS011;55036;52.138;5.236;2022-10-16T16:40:05;10.77;;;3.83;;
68214;SDS011;55036;52.138;5.236;2022-10-16T16:42:31;10.32;;;3.85;;
68214;SDS011;55036;52.138;5.236;2022-10-16T16:44:58;10.25;;;3.90;;
68214;SDS011;55036;52.138;5.236;2022-10-16T16:47:24;12.07;;;3.92;;
68214;SDS011;55036;52.138;5.236;2022-10-16T16:49:52;11.95;;;3.67;;
68214;SDS011;55036;52.138;5.236;2022-10-16T16:52:18;13.63;;;4.00;;
68214;SDS011;55036;52.138;5.236;2022-10-16T16:54:45;13.82;;;4.38;;
68214;SDS011;55036;52.138;5.236;2022-10-16T16:57:18;13.63;;;4.38;;
68214;SDS011;55036;52.138;5.236;2022-10-16T16:59:46;14.02;;;4.65;;
68214;SDS011;55036;52.138;5.236;2022-10-16T17:02:13;11.63;;;4.20;;
68214;SDS011;55036;52.138;5.236;2022-10-16T17:04:39;15.50;;;5.85;;